Wolseley, Canada
Current Conditions -  °F | °C
As of 10:00 PM on Tuesday 25 Nov 2014 (Local Time) from CYQR Reporting Station
Snow Showers Snow Showers  
Wind Chill: -1°   Ceiling: 1800
Heat Index:   Visibility: 3mi
Dew Point:   Wind: 6mph
Humidity: 79%   Direction: 10°N
Pressure: 30.2"   Gusts: NA
Location:  50.42°N, 103.27°W
Report Text: CYQR 260400Z 01005KT 3SM -SHSN OVC018 M13/M16 A3020 RMK SC8 SLP271
Loading
Personal Weather Stations






























Interactive Weather Map New forecast layout! Learn more

10-Day Weather Forecast

Advertisements
Track Severe Weather on mobile